sensor_id;sensor_type;location;lat;lon;timestamp;temperature;humidity
14397;DHT22;50653;47.810;13.022;2023-06-04T00:00:07;17.60;61.80
14397;DHT22;50653;47.810;13.022;2023-06-04T00:02:35;17.70;61.10
14397;DHT22;50653;47.810;13.022;2023-06-04T00:05:01;17.70;60.60
14397;DHT22;50653;47.810;13.022;2023-06-04T00:07:26;18.00;60.30
14397;DHT22;50653;47.810;13.022;2023-06-04T00:09:53;17.60;60.50
14397;DHT22;50653;47.810;13.022;2023-06-04T00:12:19;17.30;61.50
14397;DHT22;50653;47.810;13.022;2023-06-04T00:14:44;17.50;61.40
14397;DHT22;50653;47.810;13.022;2023-06-04T00:17:10;17.40;62.00
14397;DHT22;50653;47.810;13.022;2023-06-04T00:19:38;17.60;61.90
14397;DHT22;50653;47.810;13.022;2023-06-04T00:22:04;17.80;61.30
14397;DHT22;50653;47.810;13.022;2023-06-04T00:24:31;17.90;61.20
14397;DHT22;50653;47.810;13.022;2023-06-04T00:26:58;17.90;60.70
14397;DHT22;50653;47.810;13.022;2023-06-04T00:29:23;18.00;61.00
14397;DHT22;50653;47.810;13.022;2023-06-04T00:31:49;17.90;60.90
14397;DHT22;50653;47.810;13.022;2023-06-04T00:34:16;17.80;60.90
14397;DHT22;50653;47.810;13.022;2023-06-04T00:36:42;17.80;61.10
14397;DHT22;50653;47.810;13.022;2023-06-04T00:39:07;17.70;61.30
14397;DHT22;50653;47.810;13.022;2023-06-04T00:41:33;17.70;61.40
14397;DHT22;50653;47.810;13.022;2023-06-04T00:43:59;17.70;61.60
14397;DHT22;50653;47.810;13.022;2023-06-04T00:46:27;17.60;62.30
14397;DHT22;50653;47.810;13.022;2023-06-04T00:48:54;17.00;63.00
14397;DHT22;50653;47.810;13.022;2023-06-04T00:51:20;17.20;63.20
14397;DHT22;50653;47.810;13.022;2023-06-04T00:53:48;17.10;62.70
14397;DHT22;50653;47.810;13.022;2023-06-04T00:56:13;17.20;63.10
14397;DHT22;50653;47.810;13.022;2023-06-04T00:58:39;17.20;63.30
14397;DHT22;50653;47.810;13.022;2023-06-04T01:01:18;17.30;63.20
14397;DHT22;50653;47.810;13.022;2023-06-04T01:03:47;17.00;64.00
14397;DHT22;50653;47.810;13.022;2023-06-04T01:06:31;17.50;63.60
14397;DHT22;50653;47.810;13.022;2023-06-04T01:09:00;17.70;62.80
14397;DHT22;50653;47.810;13.022;2023-06-04T01:11:37;17.70;63.10
14397;DHT22;50653;47.810;13.022;2023-06-04T01:14:04;17.70;63.20
14397;DHT22;50653;47.810;13.022;2023-06-04T01:16:36;17.70;63.40
14397;DHT22;50653;47.810;13.022;2023-06-04T01:19:11;17.70;62.70
14397;DHT22;50653;47.810;13.022;2023-06-04T01:21:49;17.80;62.10
14397;DHT22;50653;47.810;13.022;2023-06-04T01:24:21;17.80;61.60
14397;DHT22;50653;47.810;13.022;2023-06-04T01:26:50;17.60;61.50
14397;DHT22;50653;47.810;13.022;2023-06-04T01:29:17;17.60;61.80
14397;DHT22;50653;47.810;13.022;2023-06-04T01:31:43;17.60;61.30
14397;DHT22;50653;47.810;13.022;2023-06-04T01:34:08;17.60;61.20
14397;DHT22;50653;47.810;13.022;2023-06-04T01:36:35;17.60;60.90
14397;DHT22;50653;47.810;13.022;2023-06-04T01:39:01;17.50;60.80
14397;DHT22;50653;47.810;13.022;2023-06-04T01:41:27;17.50;60.50
14397;DHT22;50653;47.810;13.022;2023-06-04T01:43:53;17.50;60.40
14397;DHT22;50653;47.810;13.022;2023-06-04T01:46:19;17.60;60.40
14397;DHT22;50653;47.810;13.022;2023-06-04T01:48:44;17.50;60.50
14397;DHT22;50653;47.810;13.022;2023-06-04T01:51:14;17.30;60.90
14397;DHT22;50653;47.810;13.022;2023-06-04T01:53:39;17.20;61.10
14397;DHT22;50653;47.810;13.022;2023-06-04T01:56:05;17.30;61.20
14397;DHT22;50653;47.810;13.022;2023-06-04T01:58:32;17.40;60.70
14397;DHT22;50653;47.810;13.022;2023-06-04T02:00:59;17.40;60.00
14397;DHT22;50653;47.810;13.022;2023-06-04T02:03:26;17.40;59.70
14397;DHT22;50653;47.810;13.022;2023-06-04T02:05:52;17.30;59.40
14397;DHT22;50653;47.810;13.022;2023-06-04T02:08:18;17.30;59.60
14397;DHT22;50653;47.810;13.022;2023-06-04T02:10:47;17.30;59.70
14397;DHT22;50653;47.810;13.022;2023-06-04T02:13:13;16.60;60.00
14397;DHT22;50653;47.810;13.022;2023-06-04T02:15:39;16.30;61.50
14397;DHT22;50653;47.810;13.022;2023-06-04T02:18:17;16.90;61.30
14397;DHT22;50653;47.810;13.022;2023-06-04T02:20:44;17.10;60.70
14397;DHT22;50653;47.810;13.022;2023-06-04T02:23:10;16.60;61.00
14397;DHT22;50653;47.810;13.022;2023-06-04T02:25:36;16.30;61.70
14397;DHT22;50653;47.810;13.022;2023-06-04T02:28:02;16.90;61.60
14397;DHT22;50653;47.810;13.022;2023-06-04T02:30:28;16.90;61.40
14397;DHT22;50653;47.810;13.022;2023-06-04T02:32:53;17.00;61.00
14397;DHT22;50653;47.810;13.022;2023-06-04T02:35:20;16.50;61.40
14397;DHT22;50653;47.810;13.022;2023-06-04T02:37:49;15.90;62.70
14397;DHT22;50653;47.810;13.022;2023-06-04T02:40:15;16.10;63.30
14397;DHT22;50653;47.810;13.022;2023-06-04T02:42:41;16.10;63.40
14397;DHT22;50653;47.810;13.022;2023-06-04T02:45:07;15.90;64.30
14397;DHT22;50653;47.810;13.022;2023-06-04T02:47:32;15.80;64.90
14397;DHT22;50653;47.810;13.022;2023-06-04T02:49:58;16.50;63.90
14397;DHT22;50653;47.810;13.022;2023-06-04T02:52:24;16.80;63.00
14397;DHT22;50653;47.810;13.022;2023-06-04T02:54:51;17.00;62.20
14397;DHT22;50653;47.810;13.022;2023-06-04T02:57:17;17.10;61.80
14397;DHT22;50653;47.810;13.022;2023-06-04T02:59:42;17.20;61.90
14397;DHT22;50653;47.810;13.022;2023-06-04T03:02:08;17.30;61.20
14397;DHT22;50653;47.810;13.022;2023-06-04T03:04:35;17.20;61.10
14397;DHT22;50653;47.810;13.022;2023-06-04T03:07:02;16.40;61.60
14397;DHT22;50653;47.810;13.022;2023-06-04T03:09:29;16.40;62.00
14397;DHT22;50653;47.810;13.022;2023-06-04T03:11:58;16.10;62.90
14397;DHT22;50653;47.810;13.022;2023-06-04T03:14:25;16.40;62.90
14397;DHT22;50653;47.810;13.022;2023-06-04T03:17:01;16.60;62.30
14397;DHT22;50653;47.810;13.022;2023-06-04T03:19:40;16.50;61.90
14397;DHT22;50653;47.810;13.022;2023-06-04T03:22:07;15.90;63.20
14397;DHT22;50653;47.810;13.022;2023-06-04T03:24:38;15.80;64.00
14397;DHT22;50653;47.810;13.022;2023-06-04T03:27:04;15.90;64.80
14397;DHT22;50653;47.810;13.022;2023-06-04T03:29:32;15.90;65.00
14397;DHT22;50653;47.810;13.022;2023-06-04T03:32:01;16.40;64.30
14397;DHT22;50653;47.810;13.022;2023-06-04T03:34:27;16.40;63.80
14397;DHT22;50653;47.810;13.022;2023-06-04T03:36:54;16.80;63.40
14397;DHT22;50653;47.810;13.022;2023-06-04T03:39:20;17.00;63.90
14397;DHT22;50653;47.810;13.022;2023-06-04T03:41:48;17.00;63.10
14397;DHT22;50653;47.810;13.022;2023-06-04T03:44:18;17.10;62.70
14397;DHT22;50653;47.810;13.022;2023-06-04T03:46:45;17.10;62.70
14397;DHT22;50653;47.810;13.022;2023-06-04T03:49:13;17.20;62.60
14397;DHT22;50653;47.810;13.022;2023-06-04T03:51:40;17.20;62.60
14397;DHT22;50653;47.810;13.022;2023-06-04T03:54:07;17.00;62.70
14397;DHT22;50653;47.810;13.022;2023-06-04T03:56:33;16.70;63.10
14397;DHT22;50653;47.810;13.022;2023-06-04T03:59:01;16.80;63.80
14397;DHT22;50653;47.810;13.022;2023-06-04T04:01:27;17.00;63.00
14397;DHT22;50653;47.810;13.022;2023-06-04T04:03:56;16.60;62.80
14397;DHT22;50653;47.810;13.022;2023-06-04T04:06:22;16.10;64.70
14397;DHT22;50653;47.810;13.022;2023-06-04T04:08:48;16.00;65.30
14397;DHT22;50653;47.810;13.022;2023-06-04T04:11:16;16.40;64.70
14397;DHT22;50653;47.810;13.022;2023-06-04T04:13:42;16.80;63.70
14397;DHT22;50653;47.810;13.022;2023-06-04T04:16:07;17.00;63.40
14397;DHT22;50653;47.810;13.022;2023-06-04T04:18:34;17.10;62.50
14397;DHT22;50653;47.810;13.022;2023-06-04T04:21:02;17.10;62.50
14397;DHT22;50653;47.810;13.022;2023-06-04T04:23:28;17.10;62.00
14397;DHT22;50653;47.810;13.022;2023-06-04T04:25:54;16.30;61.90
14397;DHT22;50653;47.810;13.022;2023-06-04T04:28:22;16.10;63.70
14397;DHT22;50653;47.810;13.022;2023-06-04T04:30:49;16.70;62.90
14397;DHT22;50653;47.810;13.022;2023-06-04T04:33:15;16.90;62.70
14397;DHT22;50653;47.810;13.022;2023-06-04T04:35:44;17.00;63.10
14397;DHT22;50653;47.810;13.022;2023-06-04T04:38:12;17.10;62.70
14397;DHT22;50653;47.810;13.022;2023-06-04T04:40:46;17.00;63.00
14397;DHT22;50653;47.810;13.022;2023-06-04T04:43:13;17.00;63.10
14397;DHT22;50653;47.810;13.022;2023-06-04T04:45:39;17.10;63.20
14397;DHT22;50653;47.810;13.022;2023-06-04T04:48:08;17.20;63.00
14397;DHT22;50653;47.810;13.022;2023-06-04T04:50:33;17.20;62.90
14397;DHT22;50653;47.810;13.022;2023-06-04T04:53:01;17.20;62.90
14397;DHT22;50653;47.810;13.022;2023-06-04T04:55:28;17.00;63.60
14397;DHT22;50653;47.810;13.022;2023-06-04T04:57:54;17.20;63.60
14397;DHT22;50653;47.810;13.022;2023-06-04T05:00:20;17.10;63.00
14397;DHT22;50653;47.810;13.022;2023-06-04T05:02:50;17.20;63.10
14397;DHT22;50653;47.810;13.022;2023-06-04T05:05:16;17.30;63.10
14397;DHT22;50653;47.810;13.022;2023-06-04T05:07:44;17.30;63.10
14397;DHT22;50653;47.810;13.022;2023-06-04T05:10:10;17.30;63.10
14397;DHT22;50653;47.810;13.022;2023-06-04T05:12:36;17.30;63.00
14397;DHT22;50653;47.810;13.022;2023-06-04T05:15:04;16.80;63.30
14397;DHT22;50653;47.810;13.022;2023-06-04T05:17:30;17.00;64.00
14397;DHT22;50653;47.810;13.022;2023-06-04T05:20:00;17.30;63.70
14397;DHT22;50653;47.810;13.022;2023-06-04T05:22:28;17.40;63.20
14397;DHT22;50653;47.810;13.022;2023-06-04T05:24:55;17.40;62.90
14397;DHT22;50653;47.810;13.022;2023-06-04T05:27:21;17.50;63.10
14397;DHT22;50653;47.810;13.022;2023-06-04T05:29:48;17.50;62.90
14397;DHT22;50653;47.810;13.022;2023-06-04T05:32:13;17.40;63.30
14397;DHT22;50653;47.810;13.022;2023-06-04T05:34:39;17.40;63.30
14397;DHT22;50653;47.810;13.022;2023-06-04T05:37:06;17.40;63.10
14397;DHT22;50653;47.810;13.022;2023-06-04T05:39:33;17.40;62.90
14397;DHT22;50653;47.810;13.022;2023-06-04T05:42:07;17.50;63.10
14397;DHT22;50653;47.810;13.022;2023-06-04T05:44:33;17.40;63.40
14397;DHT22;50653;47.810;13.022;2023-06-04T05:47:00;17.10;63.90
14397;DHT22;50653;47.810;13.022;2023-06-04T05:49:27;16.80;64.30
14397;DHT22;50653;47.810;13.022;2023-06-04T05:51:55;16.70;65.20
14397;DHT22;50653;47.810;13.022;2023-06-04T05:54:21;16.60;65.30
14397;DHT22;50653;47.810;13.022;2023-06-04T05:56:48;17.00;65.00
14397;DHT22;50653;47.810;13.022;2023-06-04T05:59:14;17.10;64.80
14397;DHT22;50653;47.810;13.022;2023-06-04T06:01:40;17.20;64.90
14397;DHT22;50653;47.810;13.022;2023-06-04T06:04:06;17.50;64.70
14397;DHT22;50653;47.810;13.022;2023-06-04T06:06:32;17.50;64.60
14397;DHT22;50653;47.810;13.022;2023-06-04T06:08:58;17.50;64.40
14397;DHT22;50653;47.810;13.022;2023-06-04T06:11:24;17.60;64.10
14397;DHT22;50653;47.810;13.022;2023-06-04T06:13:53;17.70;63.90
14397;DHT22;50653;47.810;13.022;2023-06-04T06:16:19;17.70;63.90
14397;DHT22;50653;47.810;13.022;2023-06-04T06:18:44;17.80;64.00
14397;DHT22;50653;47.810;13.022;2023-06-04T06:21:10;17.80;64.20
14397;DHT22;50653;47.810;13.022;2023-06-04T06:23:37;17.70;64.80
14397;DHT22;50653;47.810;13.022;2023-06-04T06:26:04;17.80;64.70
14397;DHT22;50653;47.810;13.022;2023-06-04T06:28:35;17.80;64.40
14397;DHT22;50653;47.810;13.022;2023-06-04T06:31:02;17.80;64.10
14397;DHT22;50653;47.810;13.022;2023-06-04T06:33:28;17.80;64.00
14397;DHT22;50653;47.810;13.022;2023-06-04T06:35:53;17.80;64.20
14397;DHT22;50653;47.810;13.022;2023-06-04T06:38:19;17.80;64.30
14397;DHT22;50653;47.810;13.022;2023-06-04T06:40:45;17.60;65.20
14397;DHT22;50653;47.810;13.022;2023-06-04T06:43:11;17.30;65.60
14397;DHT22;50653;47.810;13.022;2023-06-04T06:45:37;17.40;66.20
14397;DHT22;50653;47.810;13.022;2023-06-04T06:48:03;17.50;65.50
14397;DHT22;50653;47.810;13.022;2023-06-04T06:50:29;17.70;65.20
14397;DHT22;50653;47.810;13.022;2023-06-04T06:52:55;17.70;66.00
14397;DHT22;50653;47.810;13.022;2023-06-04T06:55:21;17.80;65.70
14397;DHT22;50653;47.810;13.022;2023-06-04T06:57:46;17.70;66.20
14397;DHT22;50653;47.810;13.022;2023-06-04T07:00:12;17.60;67.30
14397;DHT22;50653;47.810;13.022;2023-06-04T07:02:38;17.70;67.30
14397;DHT22;50653;47.810;13.022;2023-06-04T07:05:04;17.70;67.50
14397;DHT22;50653;47.810;13.022;2023-06-04T07:07:29;17.80;67.40
14397;DHT22;50653;47.810;13.022;2023-06-04T07:09:56;17.70;68.40
14397;DHT22;50653;47.810;13.022;2023-06-04T07:12:21;17.40;68.80
14397;DHT22;50653;47.810;13.022;2023-06-04T07:14:47;17.70;68.10
14397;DHT22;50653;47.810;13.022;2023-06-04T07:17:12;17.80;66.90
14397;DHT22;50653;47.810;13.022;2023-06-04T07:19:38;18.00;66.40
14397;DHT22;50653;47.810;13.022;2023-06-04T07:22:04;18.00;66.90
14397;DHT22;50653;47.810;13.022;2023-06-04T07:24:29;17.90;66.80
14397;DHT22;50653;47.810;13.022;2023-06-04T07:26:55;18.00;66.70
14397;DHT22;50653;47.810;13.022;2023-06-04T07:29:21;17.90;67.00
14397;DHT22;50653;47.810;13.022;2023-06-04T07:31:47;17.70;68.70
14397;DHT22;50653;47.810;13.022;2023-06-04T07:34:12;17.50;68.90
14397;DHT22;50653;47.810;13.022;2023-06-04T07:36:38;17.60;69.60
14397;DHT22;50653;47.810;13.022;2023-06-04T07:39:04;17.70;69.70
14397;DHT22;50653;47.810;13.022;2023-06-04T07:41:32;17.90;68.90
14397;DHT22;50653;47.810;13.022;2023-06-04T07:43:58;18.00;68.20
14397;DHT22;50653;47.810;13.022;2023-06-04T07:46:23;17.90;69.00
14397;DHT22;50653;47.810;13.022;2023-06-04T07:48:49;18.00;68.60
14397;DHT22;50653;47.810;13.022;2023-06-04T07:51:15;18.10;68.70
14397;DHT22;50653;47.810;13.022;2023-06-04T07:53:41;18.10;68.80
14397;DHT22;50653;47.810;13.022;2023-06-04T07:56:07;18.00;68.90
14397;DHT22;50653;47.810;13.022;2023-06-04T07:58:33;18.10;68.30
14397;DHT22;50653;47.810;13.022;2023-06-04T08:00:59;18.00;68.80
14397;DHT22;50653;47.810;13.022;2023-06-04T08:03:24;17.90;69.40
14397;DHT22;50653;47.810;13.022;2023-06-04T08:05:50;18.00;70.60
14397;DHT22;50653;47.810;13.022;2023-06-04T08:08:16;18.10;69.00
14397;DHT22;50653;47.810;13.022;2023-06-04T08:10:42;18.20;68.60
14397;DHT22;50653;47.810;13.022;2023-06-04T08:13:08;18.40;68.50
14397;DHT22;50653;47.810;13.022;2023-06-04T08:15:35;18.50;68.50
14397;DHT22;50653;47.810;13.022;2023-06-04T08:18:01;18.50;68.00
14397;DHT22;50653;47.810;13.022;2023-06-04T08:20:26;18.60;68.20
14397;DHT22;50653;47.810;13.022;2023-06-04T08:22:52;18.70;68.20
14397;DHT22;50653;47.810;13.022;2023-06-04T08:25:18;18.70;68.60
14397;DHT22;50653;47.810;13.022;2023-06-04T08:27:43;18.80;68.00
14397;DHT22;50653;47.810;13.022;2023-06-04T08:30:09;18.90;69.20
14397;DHT22;50653;47.810;13.022;2023-06-04T08:32:35;18.90;68.80
14397;DHT22;50653;47.810;13.022;2023-06-04T08:35:01;18.90;68.70
14397;DHT22;50653;47.810;13.022;2023-06-04T08:37:26;18.80;68.30
14397;DHT22;50653;47.810;13.022;2023-06-04T08:39:52;18.90;68.20
14397;DHT22;50653;47.810;13.022;2023-06-04T08:42:34;18.90;68.60
14397;DHT22;50653;47.810;13.022;2023-06-04T08:45:02;18.90;68.80
14397;DHT22;50653;47.810;13.022;2023-06-04T08:47:29;18.90;68.20
14397;DHT22;50653;47.810;13.022;2023-06-04T08:49:59;18.90;67.90
14397;DHT22;50653;47.810;13.022;2023-06-04T08:52:25;19.00;68.30
14397;DHT22;50653;47.810;13.022;2023-06-04T08:54:54;19.00;67.80
14397;DHT22;50653;47.810;13.022;2023-06-04T08:57:20;19.00;68.20
14397;DHT22;50653;47.810;13.022;2023-06-04T08:59:47;19.10;67.80
14397;DHT22;50653;47.810;13.022;2023-06-04T09:02:14;19.10;68.50
14397;DHT22;50653;47.810;13.022;2023-06-04T09:04:40;19.10;67.10
14397;DHT22;50653;47.810;13.022;2023-06-04T09:07:06;19.20;67.80
14397;DHT22;50653;47.810;13.022;2023-06-04T09:09:37;19.20;67.50
14397;DHT22;50653;47.810;13.022;2023-06-04T09:12:04;19.20;68.10
14397;DHT22;50653;47.810;13.022;2023-06-04T09:14:31;19.10;68.90
14397;DHT22;50653;47.810;13.022;2023-06-04T09:16:57;19.20;68.40
14397;DHT22;50653;47.810;13.022;2023-06-04T09:19:24;19.20;68.30
14397;DHT22;50653;47.810;13.022;2023-06-04T09:21:51;19.30;68.40
14397;DHT22;50653;47.810;13.022;2023-06-04T09:24:18;19.40;67.70
14397;DHT22;50653;47.810;13.022;2023-06-04T09:26:44;19.40;68.70
14397;DHT22;50653;47.810;13.022;2023-06-04T09:29:10;19.50;67.60
14397;DHT22;50653;47.810;13.022;2023-06-04T09:31:36;19.50;67.50
14397;DHT22;50653;47.810;13.022;2023-06-04T09:34:03;19.50;67.20
14397;DHT22;50653;47.810;13.022;2023-06-04T09:36:36;19.60;67.70
14397;DHT22;50653;47.810;13.022;2023-06-04T09:39:17;19.60;65.40
14397;DHT22;50653;47.810;13.022;2023-06-04T09:41:43;19.70;66.30
14397;DHT22;50653;47.810;13.022;2023-06-04T09:44:09;19.70;64.80
14397;DHT22;50653;47.810;13.022;2023-06-04T09:46:37;19.70;64.90
14397;DHT22;50653;47.810;13.022;2023-06-04T09:49:05;19.70;64.80
14397;DHT22;50653;47.810;13.022;2023-06-04T09:51:31;19.70;64.40
14397;DHT22;50653;47.810;13.022;2023-06-04T09:53:59;19.80;64.80
14397;DHT22;50653;47.810;13.022;2023-06-04T09:56:25;19.90;66.60
14397;DHT22;50653;47.810;13.022;2023-06-04T09:58:56;19.90;64.80
14397;DHT22;50653;47.810;13.022;2023-06-04T10:01:23;20.00;62.80
14397;DHT22;50653;47.810;13.022;2023-06-04T10:03:52;19.90;62.40
14397;DHT22;50653;47.810;13.022;2023-06-04T10:06:21;20.00;63.30
14397;DHT22;50653;47.810;13.022;2023-06-04T10:08:49;20.10;61.60
14397;DHT22;50653;47.810;13.022;2023-06-04T10:11:20;20.10;62.10
14397;DHT22;50653;47.810;13.022;2023-06-04T10:14:00;20.10;62.50
14397;DHT22;50653;47.810;13.022;2023-06-04T10:16:26;20.30;62.40
14397;DHT22;50653;47.810;13.022;2023-06-04T10:18:55;20.30;61.80
14397;DHT22;50653;47.810;13.022;2023-06-04T10:21:23;20.30;62.30
14397;DHT22;50653;47.810;13.022;2023-06-04T10:23:50;20.40;62.90
14397;DHT22;50653;47.810;13.022;2023-06-04T10:26:16;20.40;63.90
14397;DHT22;50653;47.810;13.022;2023-06-04T10:28:42;20.50;62.90
14397;DHT22;50653;47.810;13.022;2023-06-04T10:31:12;20.40;62.70
14397;DHT22;50653;47.810;13.022;2023-06-04T10:33:38;20.30;62.70
14397;DHT22;50653;47.810;13.022;2023-06-04T10:36:21;20.50;63.20
14397;DHT22;50653;47.810;13.022;2023-06-04T10:38:54;20.60;61.90
14397;DHT22;50653;47.810;13.022;2023-06-04T10:41:21;20.50;62.40
14397;DHT22;50653;47.810;13.022;2023-06-04T10:43:59;20.50;61.60
14397;DHT22;50653;47.810;13.022;2023-06-04T10:46:25;20.50;61.80
14397;DHT22;50653;47.810;13.022;2023-06-04T10:48:52;20.70;61.90
14397;DHT22;50653;47.810;13.022;2023-06-04T10:51:33;20.60;61.50
14397;DHT22;50653;47.810;13.022;2023-06-04T10:54:01;20.70;61.70
14397;DHT22;50653;47.810;13.022;2023-06-04T10:56:28;20.60;60.40
14397;DHT22;50653;47.810;13.022;2023-06-04T10:58:54;20.70;61.50
14397;DHT22;50653;47.810;13.022;2023-06-04T11:01:29;20.80;61.80
14397;DHT22;50653;47.810;13.022;2023-06-04T11:03:57;20.90;61.30
14397;DHT22;50653;47.810;13.022;2023-06-04T11:06:23;21.00;60.90
14397;DHT22;50653;47.810;13.022;2023-06-04T11:09:05;20.90;60.00
14397;DHT22;50653;47.810;13.022;2023-06-04T11:11:31;20.90;60.00
14397;DHT22;50653;47.810;13.022;2023-06-04T11:14:10;20.90;60.90
14397;DHT22;50653;47.810;13.022;2023-06-04T11:16:38;21.00;60.30
14397;DHT22;50653;47.810;13.022;2023-06-04T11:19:04;21.00;59.80
14397;DHT22;50653;47.810;13.022;2023-06-04T11:21:30;21.00;59.50
14397;DHT22;50653;47.810;13.022;2023-06-04T11:23:59;21.00;60.30
14397;DHT22;50653;47.810;13.022;2023-06-04T11:26:35;21.10;60.00
14397;DHT22;50653;47.810;13.022;2023-06-04T11:29:06;21.20;60.30
14397;DHT22;50653;47.810;13.022;2023-06-04T11:31:46;21.20;59.90
14397;DHT22;50653;47.810;13.022;2023-06-04T11:34:25;21.20;59.20
14397;DHT22;50653;47.810;13.022;2023-06-04T11:36:52;21.30;59.80
14397;DHT22;50653;47.810;13.022;2023-06-04T11:39:22;21.30;59.20
14397;DHT22;50653;47.810;13.022;2023-06-04T11:41:49;21.30;59.60
14397;DHT22;50653;47.810;13.022;2023-06-04T11:44:19;21.40;60.00
14397;DHT22;50653;47.810;13.022;2023-06-04T11:46:45;21.50;60.20
14397;DHT22;50653;47.810;13.022;2023-06-04T11:49:18;21.50;59.70
14397;DHT22;50653;47.810;13.022;2023-06-04T11:51:52;21.60;59.50
14397;DHT22;50653;47.810;13.022;2023-06-04T11:54:19;21.60;59.60
14397;DHT22;50653;47.810;13.022;2023-06-04T11:56:48;21.60;60.40
14397;DHT22;50653;47.810;13.022;2023-06-04T11:59:15;21.60;59.90
14397;DHT22;50653;47.810;13.022;2023-06-04T12:01:45;21.70;60.40
14397;DHT22;50653;47.810;13.022;2023-06-04T12:06:38;21.60;59.90
14397;DHT22;50653;47.810;13.022;2023-06-04T12:09:04;21.60;59.70
14397;DHT22;50653;47.810;13.022;2023-06-04T12:11:31;21.60;59.80
14397;DHT22;50653;47.810;13.022;2023-06-04T12:13:59;21.70;59.50
14397;DHT22;50653;47.810;13.022;2023-06-04T12:16:26;21.60;59.60
14397;DHT22;50653;47.810;13.022;2023-06-04T12:18:52;21.60;59.40
14397;DHT22;50653;47.810;13.022;2023-06-04T12:21:29;21.80;60.00
14397;DHT22;50653;47.810;13.022;2023-06-04T12:24:12;21.90;60.60
14397;DHT22;50653;47.810;13.022;2023-06-04T12:26:41;22.00;59.80
14397;DHT22;50653;47.810;13.022;2023-06-04T12:29:17;21.90;59.80
14397;DHT22;50653;47.810;13.022;2023-06-04T12:31:44;22.00;59.60
14397;DHT22;50653;47.810;13.022;2023-06-04T12:34:12;22.10;60.00
14397;DHT22;50653;47.810;13.022;2023-06-04T12:36:38;22.30;59.70
14397;DHT22;50653;47.810;13.022;2023-06-04T12:39:04;22.30;59.30
14397;DHT22;50653;47.810;13.022;2023-06-04T12:41:31;22.30;59.60
14397;DHT22;50653;47.810;13.022;2023-06-04T12:43:57;22.40;59.60
14397;DHT22;50653;47.810;13.022;2023-06-04T12:46:23;22.50;60.30
14397;DHT22;50653;47.810;13.022;2023-06-04T12:48:50;22.40;58.90
14397;DHT22;50653;47.810;13.022;2023-06-04T12:51:16;22.40;58.20
14397;DHT22;50653;47.810;13.022;2023-06-04T12:53:42;22.40;57.70
14397;DHT22;50653;47.810;13.022;2023-06-04T12:56:08;22.50;58.00
14397;DHT22;50653;47.810;13.022;2023-06-04T12:58:34;22.60;58.40
14397;DHT22;50653;47.810;13.022;2023-06-04T13:01:00;22.70;58.20
14397;DHT22;50653;47.810;13.022;2023-06-04T13:03:26;22.70;58.10
14397;DHT22;50653;47.810;13.022;2023-06-04T13:05:52;22.50;58.60
14397;DHT22;50653;47.810;13.022;2023-06-04T13:08:19;22.60;58.30
14397;DHT22;50653;47.810;13.022;2023-06-04T13:10:51;22.60;57.70
14397;DHT22;50653;47.810;13.022;2023-06-04T13:13:17;22.60;58.30
14397;DHT22;50653;47.810;13.022;2023-06-04T13:15:44;22.70;58.30
14397;DHT22;50653;47.810;13.022;2023-06-04T13:18:10;22.70;57.80
14397;DHT22;50653;47.810;13.022;2023-06-04T13:20:36;22.60;58.00
14397;DHT22;50653;47.810;13.022;2023-06-04T13:23:02;22.70;58.20
14397;DHT22;50653;47.810;13.022;2023-06-04T13:25:28;22.70;57.40
14397;DHT22;50653;47.810;13.022;2023-06-04T13:27:56;22.80;58.10
14397;DHT22;50653;47.810;13.022;2023-06-04T13:30:22;22.90;58.10
14397;DHT22;50653;47.810;13.022;2023-06-04T13:32:48;22.90;58.10
14397;DHT22;50653;47.810;13.022;2023-06-04T13:35:14;22.80;57.40
14397;DHT22;50653;47.810;13.022;2023-06-04T13:37:40;22.80;57.70
14397;DHT22;50653;47.810;13.022;2023-06-04T13:40:06;22.80;58.20
14397;DHT22;50653;47.810;13.022;2023-06-04T13:42:32;22.80;57.60
14397;DHT22;50653;47.810;13.022;2023-06-04T13:44:57;22.80;58.00
14397;DHT22;50653;47.810;13.022;2023-06-04T13:47:24;22.90;57.50
14397;DHT22;50653;47.810;13.022;2023-06-04T13:49:50;22.90;57.20
14397;DHT22;50653;47.810;13.022;2023-06-04T13:52:16;23.00;58.20
14397;DHT22;50653;47.810;13.022;2023-06-04T13:54:42;23.10;58.00
14397;DHT22;50653;47.810;13.022;2023-06-04T13:57:08;23.00;58.10
14397;DHT22;50653;47.810;13.022;2023-06-04T13:59:37;22.90;58.50
14397;DHT22;50653;47.810;13.022;2023-06-04T14:02:03;22.90;58.40
14397;DHT22;50653;47.810;13.022;2023-06-04T14:04:29;23.00;58.10
14397;DHT22;50653;47.810;13.022;2023-06-04T14:06:54;23.00;58.10
14397;DHT22;50653;47.810;13.022;2023-06-04T14:09:20;23.00;58.20
14397;DHT22;50653;47.810;13.022;2023-06-04T14:11:46;22.90;58.10
14397;DHT22;50653;47.810;13.022;2023-06-04T14:14:16;23.10;58.70
14397;DHT22;50653;47.810;13.022;2023-06-04T14:16:44;23.30;58.10
14397;DHT22;50653;47.810;13.022;2023-06-04T14:19:10;23.30;58.50
14397;DHT22;50653;47.810;13.022;2023-06-04T14:21:36;23.40;58.60
14397;DHT22;50653;47.810;13.022;2023-06-04T14:24:02;23.40;57.50
14397;DHT22;50653;47.810;13.022;2023-06-04T14:26:28;23.20;57.40
14397;DHT22;50653;47.810;13.022;2023-06-04T14:28:54;23.20;57.50
14397;DHT22;50653;47.810;13.022;2023-06-04T14:31:20;23.20;57.60
14397;DHT22;50653;47.810;13.022;2023-06-04T14:33:46;23.20;57.40
14397;DHT22;50653;47.810;13.022;2023-06-04T14:36:12;23.00;56.80
14397;DHT22;50653;47.810;13.022;2023-06-04T14:38:38;23.00;57.40
14397;DHT22;50653;47.810;13.022;2023-06-04T14:41:04;23.00;57.40
14397;DHT22;50653;47.810;13.022;2023-06-04T14:43:29;23.00;57.00
14397;DHT22;50653;47.810;13.022;2023-06-04T14:45:55;23.00;57.10
14397;DHT22;50653;47.810;13.022;2023-06-04T14:48:21;22.90;57.20
14397;DHT22;50653;47.810;13.022;2023-06-04T14:50:46;22.90;57.20
14397;DHT22;50653;47.810;13.022;2023-06-04T14:53:13;22.90;57.40
14397;DHT22;50653;47.810;13.022;2023-06-04T14:55:38;22.80;57.30
14397;DHT22;50653;47.810;13.022;2023-06-04T14:58:04;22.80;57.50
14397;DHT22;50653;47.810;13.022;2023-06-04T15:00:31;22.90;57.70
14397;DHT22;50653;47.810;13.022;2023-06-04T15:02:57;22.80;57.90
14397;DHT22;50653;47.810;13.022;2023-06-04T15:05:23;22.80;57.80
14397;DHT22;50653;47.810;13.022;2023-06-04T15:07:49;22.80;58.00
14397;DHT22;50653;47.810;13.022;2023-06-04T15:10:15;22.70;58.10
14397;DHT22;50653;47.810;13.022;2023-06-04T15:12:40;22.70;58.50
14397;DHT22;50653;47.810;13.022;2023-06-04T15:15:07;22.70;58.80
14397;DHT22;50653;47.810;13.022;2023-06-04T15:17:34;22.70;58.80